In Rescue
 
Open Full Screen Window  High Contrast Mode
Wind Gusting 00 knots
06
January 22, 2020 5:33 PM CST
Present Weather: Light Drizzle
Weather Information
Wind Direction
  160 °
Wind Speed
  06 kt (7 mph)
Wind Gust
  00 kt (0 mph)
Altimeter
29.87 in
Visibility
5 SM
Temperature
02° C
36° F
Dewpoint
02° C
36° F
Humidity
100%
1hr Rain Fall
00.00 in.
24hr Rain Fall
00.01 in.
Sky Condition
Overcast @ 1,100 ft
MVFR

METAR KANE 222333Z AUTO 16006KT 5SM -DZ OVC011 02/02 A2987 RMK AO2

FAA Disclaimer: The data displayed is for advisory purposes only and is not to be used for flight planning or operations.